sensor_id;sensor_type;location;lat;lon;timestamp;P1;durP1;ratioP1;P2;durP2;ratioP2
15043;SDS011;7619;48.562;8.910;2024-02-14T00:00:11;9.80;;;5.83;;
15043;SDS011;7619;48.562;8.910;2024-02-14T00:02:40;6.90;;;5.07;;
15043;SDS011;7619;48.562;8.910;2024-02-14T00:05:08;8.23;;;5.43;;
15043;SDS011;7619;48.562;8.910;2024-02-14T00:07:37;9.23;;;6.03;;
15043;SDS011;7619;48.562;8.910;2024-02-14T00:10:07;12.80;;;5.43;;
15043;SDS011;7619;48.562;8.910;2024-02-14T00:12:35;6.93;;;5.17;;
15043;SDS011;7619;48.562;8.910;2024-02-14T00:15:04;11.43;;;4.97;;
15043;SDS011;7619;48.562;8.910;2024-02-14T00:17:33;10.07;;;5.93;;
15043;SDS011;7619;48.562;8.910;2024-02-14T00:20:01;11.13;;;6.10;;
15043;SDS011;7619;48.562;8.910;2024-02-14T00:22:30;8.83;;;5.77;;
15043;SDS011;7619;48.562;8.910;2024-02-14T00:24:58;9.70;;;6.30;;
15043;SDS011;7619;48.562;8.910;2024-02-14T00:27:26;6.60;;;5.27;;
15043;SDS011;7619;48.562;8.910;2024-02-14T00:29:54;10.57;;;5.73;;
15043;SDS011;7619;48.562;8.910;2024-02-14T00:32:23;8.20;;;5.83;;
15043;SDS011;7619;48.562;8.910;2024-02-14T00:34:51;9.63;;;5.50;;
15043;SDS011;7619;48.562;8.910;2024-02-14T00:37:19;8.70;;;5.47;;
15043;SDS011;7619;48.562;8.910;2024-02-14T00:39:47;9.43;;;5.47;;
15043;SDS011;7619;48.562;8.910;2024-02-14T00:42:17;9.70;;;5.97;;
15043;SDS011;7619;48.562;8.910;2024-02-14T00:44:45;8.43;;;5.20;;
15043;SDS011;7619;48.562;8.910;2024-02-14T00:47:14;10.83;;;6.13;;
15043;SDS011;7619;48.562;8.910;2024-02-14T00:49:42;6.93;;;5.20;;
15043;SDS011;7619;48.562;8.910;2024-02-14T00:52:10;9.77;;;6.07;;
15043;SDS011;7619;48.562;8.910;2024-02-14T00:54:38;7.43;;;5.17;;
15043;SDS011;7619;48.562;8.910;2024-02-14T00:57:06;7.90;;;5.00;;
15043;SDS011;7619;48.562;8.910;2024-02-14T00:59:34;9.03;;;5.13;;
15043;SDS011;7619;48.562;8.910;2024-02-14T01:02:02;10.23;;;5.80;;
15043;SDS011;7619;48.562;8.910;2024-02-14T01:04:31;10.17;;;5.93;;
15043;SDS011;7619;48.562;8.910;2024-02-14T01:06:59;6.90;;;5.00;;
15043;SDS011;7619;48.562;8.910;2024-02-14T01:09:27;7.60;;;4.97;;
15043;SDS011;7619;48.562;8.910;2024-02-14T01:11:55;9.40;;;5.27;;
15043;SDS011;7619;48.562;8.910;2024-02-14T01:14:23;7.17;;;4.97;;
15043;SDS011;7619;48.562;8.910;2024-02-14T01:16:51;5.93;;;5.00;;
15043;SDS011;7619;48.562;8.910;2024-02-14T01:19:20;8.60;;;5.13;;
15043;SDS011;7619;48.562;8.910;2024-02-14T01:21:50;7.17;;;5.47;;
15043;SDS011;7619;48.562;8.910;2024-02-14T01:24:18;6.17;;;5.10;;
15043;SDS011;7619;48.562;8.910;2024-02-14T01:26:46;8.33;;;5.13;;
15043;SDS011;7619;48.562;8.910;2024-02-14T01:29:14;13.80;;;6.47;;
15043;SDS011;7619;48.562;8.910;2024-02-14T01:31:43;8.33;;;6.10;;
15043;SDS011;7619;48.562;8.910;2024-02-14T01:34:11;9.23;;;5.93;;
15043;SDS011;7619;48.562;8.910;2024-02-14T01:36:39;13.77;;;5.80;;
15043;SDS011;7619;48.562;8.910;2024-02-14T01:39:08;9.73;;;5.70;;
15043;SDS011;7619;48.562;8.910;2024-02-14T01:41:37;7.30;;;5.30;;
15043;SDS011;7619;48.562;8.910;2024-02-14T01:44:05;11.40;;;6.43;;
15043;SDS011;7619;48.562;8.910;2024-02-14T01:46:33;8.40;;;5.33;;
15043;SDS011;7619;48.562;8.910;2024-02-14T01:49:02;8.33;;;6.10;;
15043;SDS011;7619;48.562;8.910;2024-02-14T01:51:30;9.20;;;6.10;;
15043;SDS011;7619;48.562;8.910;2024-02-14T01:53:59;7.07;;;5.67;;
15043;SDS011;7619;48.562;8.910;2024-02-14T01:56:28;9.40;;;6.17;;
15043;SDS011;7619;48.562;8.910;2024-02-14T01:58:56;9.67;;;6.23;;
15043;SDS011;7619;48.562;8.910;2024-02-14T02:01:25;8.50;;;5.60;;
15043;SDS011;7619;48.562;8.910;2024-02-14T02:03:54;9.67;;;6.37;;
15043;SDS011;7619;48.562;8.910;2024-02-14T02:06:22;9.33;;;5.97;;
15043;SDS011;7619;48.562;8.910;2024-02-14T02:08:50;7.37;;;5.77;;
15043;SDS011;7619;48.562;8.910;2024-02-14T02:11:18;8.83;;;5.17;;
15043;SDS011;7619;48.562;8.910;2024-02-14T02:13:46;7.73;;;4.70;;
15043;SDS011;7619;48.562;8.910;2024-02-14T02:16:14;9.20;;;5.73;;
15043;SDS011;7619;48.562;8.910;2024-02-14T02:18:43;11.73;;;5.60;;
15043;SDS011;7619;48.562;8.910;2024-02-14T02:21:11;7.80;;;5.83;;
15043;SDS011;7619;48.562;8.910;2024-02-14T02:23:39;8.40;;;5.63;;
15043;SDS011;7619;48.562;8.910;2024-02-14T02:26:08;11.37;;;5.77;;
15043;SDS011;7619;48.562;8.910;2024-02-14T02:28:37;8.80;;;5.50;;
15043;SDS011;7619;48.562;8.910;2024-02-14T02:31:06;9.23;;;5.87;;
15043;SDS011;7619;48.562;8.910;2024-02-14T02:33:35;10.27;;;6.17;;
15043;SDS011;7619;48.562;8.910;2024-02-14T02:36:04;9.13;;;5.63;;
15043;SDS011;7619;48.562;8.910;2024-02-14T02:38:34;7.43;;;5.47;;
15043;SDS011;7619;48.562;8.910;2024-02-14T02:41:03;8.50;;;5.67;;
15043;SDS011;7619;48.562;8.910;2024-02-14T02:43:33;7.07;;;4.63;;
15043;SDS011;7619;48.562;8.910;2024-02-14T02:46:01;10.10;;;7.23;;
15043;SDS011;7619;48.562;8.910;2024-02-14T02:48:29;9.67;;;6.83;;
15043;SDS011;7619;48.562;8.910;2024-02-14T02:50:58;7.20;;;5.83;;
15043;SDS011;7619;48.562;8.910;2024-02-14T02:53:26;9.30;;;5.83;;
15043;SDS011;7619;48.562;8.910;2024-02-14T02:55:54;7.37;;;5.17;;
15043;SDS011;7619;48.562;8.910;2024-02-14T02:58:24;8.20;;;5.80;;
15043;SDS011;7619;48.562;8.910;2024-02-14T03:00:53;8.57;;;5.67;;
15043;SDS011;7619;48.562;8.910;2024-02-14T03:03:23;8.50;;;5.33;;
15043;SDS011;7619;48.562;8.910;2024-02-14T03:05:54;4.93;;;4.50;;
15043;SDS011;7619;48.562;8.910;2024-02-14T03:08:23;6.40;;;4.83;;
15043;SDS011;7619;48.562;8.910;2024-02-14T03:10:52;7.57;;;5.30;;
15043;SDS011;7619;48.562;8.910;2024-02-14T03:13:20;6.97;;;5.23;;
15043;SDS011;7619;48.562;8.910;2024-02-14T03:15:48;7.43;;;4.73;;
15043;SDS011;7619;48.562;8.910;2024-02-14T03:18:17;5.83;;;4.70;;
15043;SDS011;7619;48.562;8.910;2024-02-14T03:20:45;8.83;;;5.43;;
15043;SDS011;7619;48.562;8.910;2024-02-14T03:23:13;5.53;;;4.63;;
15043;SDS011;7619;48.562;8.910;2024-02-14T03:25:42;6.77;;;5.53;;
15043;SDS011;7619;48.562;8.910;2024-02-14T03:28:10;9.80;;;6.33;;
15043;SDS011;7619;48.562;8.910;2024-02-14T03:30:39;7.17;;;5.63;;
15043;SDS011;7619;48.562;8.910;2024-02-14T03:33:08;11.10;;;6.17;;
15043;SDS011;7619;48.562;8.910;2024-02-14T03:35:36;8.77;;;5.53;;
15043;SDS011;7619;48.562;8.910;2024-02-14T03:38:04;10.07;;;5.53;;
15043;SDS011;7619;48.562;8.910;2024-02-14T03:40:34;7.67;;;6.13;;
15043;SDS011;7619;48.562;8.910;2024-02-14T03:43:03;10.20;;;6.53;;
15043;SDS011;7619;48.562;8.910;2024-02-14T03:45:31;10.40;;;6.20;;
15043;SDS011;7619;48.562;8.910;2024-02-14T03:47:59;10.00;;;5.83;;
15043;SDS011;7619;48.562;8.910;2024-02-14T03:50:27;9.53;;;6.20;;
15043;SDS011;7619;48.562;8.910;2024-02-14T03:52:55;9.63;;;6.23;;
15043;SDS011;7619;48.562;8.910;2024-02-14T03:55:23;13.03;;;6.03;;
15043;SDS011;7619;48.562;8.910;2024-02-14T03:57:51;9.03;;;6.00;;
15043;SDS011;7619;48.562;8.910;2024-02-14T04:00:20;9.07;;;5.57;;
15043;SDS011;7619;48.562;8.910;2024-02-14T04:02:49;7.97;;;5.37;;
15043;SDS011;7619;48.562;8.910;2024-02-14T04:05:18;8.13;;;5.67;;
15043;SDS011;7619;48.562;8.910;2024-02-14T04:07:46;6.03;;;4.80;;
15043;SDS011;7619;48.562;8.910;2024-02-14T04:10:16;9.13;;;6.27;;
15043;SDS011;7619;48.562;8.910;2024-02-14T04:12:44;5.80;;;4.37;;
15043;SDS011;7619;48.562;8.910;2024-02-14T04:15:12;4.80;;;3.83;;
15043;SDS011;7619;48.562;8.910;2024-02-14T04:17:40;7.40;;;3.90;;
15043;SDS011;7619;48.562;8.910;2024-02-14T04:20:09;7.50;;;4.43;;
15043;SDS011;7619;48.562;8.910;2024-02-14T04:22:37;5.73;;;3.93;;
15043;SDS011;7619;48.562;8.910;2024-02-14T04:25:08;6.43;;;4.03;;
15043;SDS011;7619;48.562;8.910;2024-02-14T04:27:36;4.00;;;3.63;;
15043;SDS011;7619;48.562;8.910;2024-02-14T04:30:05;7.90;;;3.60;;
15043;SDS011;7619;48.562;8.910;2024-02-14T04:32:33;7.03;;;3.70;;
15043;SDS011;7619;48.562;8.910;2024-02-14T04:35:01;5.30;;;3.23;;
15043;SDS011;7619;48.562;8.910;2024-02-14T04:37:30;9.40;;;3.37;;
15043;SDS011;7619;48.562;8.910;2024-02-14T04:39:59;5.43;;;3.43;;
15043;SDS011;7619;48.562;8.910;2024-02-14T04:42:27;4.47;;;3.33;;
15043;SDS011;7619;48.562;8.910;2024-02-14T04:44:55;4.70;;;3.47;;
15043;SDS011;7619;48.562;8.910;2024-02-14T04:47:23;3.40;;;3.10;;
15043;SDS011;7619;48.562;8.910;2024-02-14T04:49:51;4.27;;;3.23;;
15043;SDS011;7619;48.562;8.910;2024-02-14T04:52:20;5.90;;;3.17;;
15043;SDS011;7619;48.562;8.910;2024-02-14T04:54:48;5.73;;;2.70;;
15043;SDS011;7619;48.562;8.910;2024-02-14T04:57:16;4.97;;;2.93;;
15043;SDS011;7619;48.562;8.910;2024-02-14T04:59:45;4.50;;;3.30;;
15043;SDS011;7619;48.562;8.910;2024-02-14T05:02:13;3.93;;;2.70;;
15043;SDS011;7619;48.562;8.910;2024-02-14T05:04:41;4.77;;;2.57;;
15043;SDS011;7619;48.562;8.910;2024-02-14T05:07:09;12.67;;;3.13;;
15043;SDS011;7619;48.562;8.910;2024-02-14T05:09:37;4.27;;;2.33;;
15043;SDS011;7619;48.562;8.910;2024-02-14T05:12:06;5.50;;;2.43;;
15043;SDS011;7619;48.562;8.910;2024-02-14T05:14:37;4.60;;;2.23;;
15043;SDS011;7619;48.562;8.910;2024-02-14T05:17:07;4.10;;;2.53;;
15043;SDS011;7619;48.562;8.910;2024-02-14T05:19:35;3.87;;;2.43;;
15043;SDS011;7619;48.562;8.910;2024-02-14T05:22:03;6.23;;;2.63;;
15043;SDS011;7619;48.562;8.910;2024-02-14T05:24:31;4.10;;;2.00;;
15043;SDS011;7619;48.562;8.910;2024-02-14T05:27:00;3.33;;;2.03;;
15043;SDS011;7619;48.562;8.910;2024-02-14T05:29:27;6.13;;;2.87;;
15043;SDS011;7619;48.562;8.910;2024-02-14T05:31:55;2.70;;;2.30;;
15043;SDS011;7619;48.562;8.910;2024-02-14T05:37:00;5.30;;;2.43;;
15043;SDS011;7619;48.562;8.910;2024-02-14T05:39:28;4.80;;;2.50;;
15043;SDS011;7619;48.562;8.910;2024-02-14T05:41:56;3.53;;;2.40;;
15043;SDS011;7619;48.562;8.910;2024-02-14T05:44:24;4.10;;;2.33;;
15043;SDS011;7619;48.562;8.910;2024-02-14T05:46:54;2.13;;;2.00;;
15043;SDS011;7619;48.562;8.910;2024-02-14T05:49:22;2.73;;;1.90;;
15043;SDS011;7619;48.562;8.910;2024-02-14T05:51:51;2.83;;;2.20;;
15043;SDS011;7619;48.562;8.910;2024-02-14T05:54:20;3.67;;;2.13;;
15043;SDS011;7619;48.562;8.910;2024-02-14T05:56:48;5.20;;;2.17;;
15043;SDS011;7619;48.562;8.910;2024-02-14T05:59:16;1.90;;;1.70;;
15043;SDS011;7619;48.562;8.910;2024-02-14T06:01:44;2.03;;;1.70;;
15043;SDS011;7619;48.562;8.910;2024-02-14T06:04:12;3.63;;;2.07;;
15043;SDS011;7619;48.562;8.910;2024-02-14T06:06:40;2.30;;;2.03;;
15043;SDS011;7619;48.562;8.910;2024-02-14T06:09:08;6.20;;;2.20;;
15043;SDS011;7619;48.562;8.910;2024-02-14T06:11:38;3.67;;;2.20;;
15043;SDS011;7619;48.562;8.910;2024-02-14T06:14:06;4.23;;;2.60;;
15043;SDS011;7619;48.562;8.910;2024-02-14T06:16:34;3.50;;;2.50;;
15043;SDS011;7619;48.562;8.910;2024-02-14T06:19:03;2.70;;;2.00;;
15043;SDS011;7619;48.562;8.910;2024-02-14T06:21:32;3.90;;;2.40;;
15043;SDS011;7619;48.562;8.910;2024-02-14T06:24:00;3.67;;;2.83;;
15043;SDS011;7619;48.562;8.910;2024-02-14T06:26:30;17.03;;;9.67;;
15043;SDS011;7619;48.562;8.910;2024-02-14T06:28:59;12.80;;;6.30;;
15043;SDS011;7619;48.562;8.910;2024-02-14T06:31:29;9.27;;;4.63;;
15043;SDS011;7619;48.562;8.910;2024-02-14T06:33:57;13.80;;;5.27;;
15043;SDS011;7619;48.562;8.910;2024-02-14T06:36:25;5.90;;;3.67;;
15043;SDS011;7619;48.562;8.910;2024-02-14T06:38:53;5.13;;;2.60;;
15043;SDS011;7619;48.562;8.910;2024-02-14T06:41:21;6.07;;;2.57;;
15043;SDS011;7619;48.562;8.910;2024-02-14T06:43:49;7.97;;;2.63;;
15043;SDS011;7619;48.562;8.910;2024-02-14T06:46:17;2.13;;;1.80;;
15043;SDS011;7619;48.562;8.910;2024-02-14T06:48:45;3.03;;;2.43;;
15043;SDS011;7619;48.562;8.910;2024-02-14T06:51:16;3.83;;;2.00;;
15043;SDS011;7619;48.562;8.910;2024-02-14T06:53:44;4.23;;;3.50;;
15043;SDS011;7619;48.562;8.910;2024-02-14T06:56:12;2.57;;;2.07;;
15043;SDS011;7619;48.562;8.910;2024-02-14T06:58:40;2.53;;;1.90;;
15043;SDS011;7619;48.562;8.910;2024-02-14T07:01:08;3.00;;;1.80;;
15043;SDS011;7619;48.562;8.910;2024-02-14T07:03:37;2.70;;;2.00;;
15043;SDS011;7619;48.562;8.910;2024-02-14T07:06:07;4.30;;;2.73;;
15043;SDS011;7619;48.562;8.910;2024-02-14T07:08:35;7.67;;;2.07;;
15043;SDS011;7619;48.562;8.910;2024-02-14T07:11:03;6.07;;;2.20;;
15043;SDS011;7619;48.562;8.910;2024-02-14T07:13:31;3.43;;;1.97;;
15043;SDS011;7619;48.562;8.910;2024-02-14T07:15:59;4.23;;;1.93;;
15043;SDS011;7619;48.562;8.910;2024-02-14T07:18:28;2.50;;;1.67;;
15043;SDS011;7619;48.562;8.910;2024-02-14T07:20:56;3.20;;;2.30;;
15043;SDS011;7619;48.562;8.910;2024-02-14T07:23:24;2.27;;;2.07;;
15043;SDS011;7619;48.562;8.910;2024-02-14T07:25:53;2.43;;;2.17;;
15043;SDS011;7619;48.562;8.910;2024-02-14T07:28:21;3.07;;;1.63;;
15043;SDS011;7619;48.562;8.910;2024-02-14T07:30:49;2.93;;;2.00;;
15043;SDS011;7619;48.562;8.910;2024-02-14T07:33:17;3.10;;;2.03;;
15043;SDS011;7619;48.562;8.910;2024-02-14T07:35:45;4.30;;;2.03;;
15043;SDS011;7619;48.562;8.910;2024-02-14T07:38:14;4.10;;;1.80;;
15043;SDS011;7619;48.562;8.910;2024-02-14T07:40:43;2.13;;;1.87;;
15043;SDS011;7619;48.562;8.910;2024-02-14T07:43:11;2.23;;;1.60;;
15043;SDS011;7619;48.562;8.910;2024-02-14T07:45:39;7.27;;;2.10;;
15043;SDS011;7619;48.562;8.910;2024-02-14T07:48:07;4.50;;;2.07;;
15043;SDS011;7619;48.562;8.910;2024-02-14T07:50:36;2.87;;;1.80;;
15043;SDS011;7619;48.562;8.910;2024-02-14T07:53:04;5.20;;;2.03;;
15043;SDS011;7619;48.562;8.910;2024-02-14T07:55:33;2.97;;;1.70;;
15043;SDS011;7619;48.562;8.910;2024-02-14T07:58:01;3.80;;;1.97;;
15043;SDS011;7619;48.562;8.910;2024-02-14T08:00:29;3.77;;;2.27;;
15043;SDS011;7619;48.562;8.910;2024-02-14T08:02:57;5.07;;;1.93;;
15043;SDS011;7619;48.562;8.910;2024-02-14T08:05:25;6.00;;;1.73;;
15043;SDS011;7619;48.562;8.910;2024-02-14T08:07:53;2.33;;;1.53;;
15043;SDS011;7619;48.562;8.910;2024-02-14T08:10:21;3.27;;;2.30;;
15043;SDS011;7619;48.562;8.910;2024-02-14T08:12:49;6.33;;;2.17;;
15043;SDS011;7619;48.562;8.910;2024-02-14T08:15:17;6.10;;;1.70;;
15043;SDS011;7619;48.562;8.910;2024-02-14T08:17:45;4.77;;;1.90;;
15043;SDS011;7619;48.562;8.910;2024-02-14T08:20:13;2.50;;;1.60;;
15043;SDS011;7619;48.562;8.910;2024-02-14T08:22:41;3.50;;;1.67;;
15043;SDS011;7619;48.562;8.910;2024-02-14T08:25:09;5.70;;;2.00;;
15043;SDS011;7619;48.562;8.910;2024-02-14T08:27:38;2.10;;;1.30;;
15043;SDS011;7619;48.562;8.910;2024-02-14T08:30:07;2.67;;;1.57;;
15043;SDS011;7619;48.562;8.910;2024-02-14T08:32:35;3.60;;;2.07;;
15043;SDS011;7619;48.562;8.910;2024-02-14T08:35:04;5.57;;;2.27;;
15043;SDS011;7619;48.562;8.910;2024-02-14T08:37:34;3.73;;;1.80;;
15043;SDS011;7619;48.562;8.910;2024-02-14T08:40:04;1.93;;;1.50;;
15043;SDS011;7619;48.562;8.910;2024-02-14T08:42:33;3.40;;;1.90;;
15043;SDS011;7619;48.562;8.910;2024-02-14T08:45:01;3.50;;;1.83;;
15043;SDS011;7619;48.562;8.910;2024-02-14T08:47:30;3.40;;;1.83;;
15043;SDS011;7619;48.562;8.910;2024-02-14T08:49:58;3.93;;;1.80;;
15043;SDS011;7619;48.562;8.910;2024-02-14T08:52:26;4.77;;;1.40;;
15043;SDS011;7619;48.562;8.910;2024-02-14T08:54:55;2.47;;;1.90;;
15043;SDS011;7619;48.562;8.910;2024-02-14T08:57:23;2.83;;;1.43;;
15043;SDS011;7619;48.562;8.910;2024-02-14T08:59:52;3.10;;;1.77;;
15043;SDS011;7619;48.562;8.910;2024-02-14T09:02:21;3.70;;;2.10;;
15043;SDS011;7619;48.562;8.910;2024-02-14T09:04:49;4.53;;;2.30;;
15043;SDS011;7619;48.562;8.910;2024-02-14T09:07:17;4.80;;;2.80;;
15043;SDS011;7619;48.562;8.910;2024-02-14T09:09:45;3.50;;;2.43;;
15043;SDS011;7619;48.562;8.910;2024-02-14T09:12:14;6.13;;;3.03;;
15043;SDS011;7619;48.562;8.910;2024-02-14T09:14:42;4.30;;;2.80;;
15043;SDS011;7619;48.562;8.910;2024-02-14T09:17:10;5.00;;;1.80;;
15043;SDS011;7619;48.562;8.910;2024-02-14T09:19:38;7.40;;;2.70;;
15043;SDS011;7619;48.562;8.910;2024-02-14T09:22:06;8.17;;;2.67;;
15043;SDS011;7619;48.562;8.910;2024-02-14T09:24:34;4.43;;;2.00;;
15043;SDS011;7619;48.562;8.910;2024-02-14T09:27:03;5.50;;;2.00;;
15043;SDS011;7619;48.562;8.910;2024-02-14T09:29:32;4.77;;;2.30;;
15043;SDS011;7619;48.562;8.910;2024-02-14T09:32:01;4.53;;;2.07;;
15043;SDS011;7619;48.562;8.910;2024-02-14T09:34:30;5.57;;;2.93;;
15043;SDS011;7619;48.562;8.910;2024-02-14T09:36:58;4.60;;;3.70;;
15043;SDS011;7619;48.562;8.910;2024-02-14T09:39:26;4.27;;;3.83;;
15043;SDS011;7619;48.562;8.910;2024-02-14T09:41:54;3.47;;;1.80;;
15043;SDS011;7619;48.562;8.910;2024-02-14T09:44:24;2.40;;;1.53;;
15043;SDS011;7619;48.562;8.910;2024-02-14T09:46:54;2.93;;;1.30;;
15043;SDS011;7619;48.562;8.910;2024-02-14T09:49:22;5.27;;;1.40;;
15043;SDS011;7619;48.562;8.910;2024-02-14T09:51:51;2.47;;;1.27;;
15043;SDS011;7619;48.562;8.910;2024-02-14T09:54:19;2.00;;;1.13;;
15043;SDS011;7619;48.562;8.910;2024-02-14T09:56:48;3.73;;;1.30;;
15043;SDS011;7619;48.562;8.910;2024-02-14T09:59:19;3.37;;;1.73;;
15043;SDS011;7619;48.562;8.910;2024-02-14T10:01:48;4.17;;;1.70;;
15043;SDS011;7619;48.562;8.910;2024-02-14T10:04:18;2.87;;;1.57;;
15043;SDS011;7619;48.562;8.910;2024-02-14T10:06:47;3.93;;;1.63;;
15043;SDS011;7619;48.562;8.910;2024-02-14T10:09:18;5.77;;;1.30;;
15043;SDS011;7619;48.562;8.910;2024-02-14T10:11:46;3.77;;;1.20;;
15043;SDS011;7619;48.562;8.910;2024-02-14T10:14:14;3.50;;;1.20;;
15043;SDS011;7619;48.562;8.910;2024-02-14T10:16:42;2.83;;;1.43;;
15043;SDS011;7619;48.562;8.910;2024-02-14T10:19:16;4.37;;;1.10;;
15043;SDS011;7619;48.562;8.910;2024-02-14T10:21:44;1.50;;;1.00;;
15043;SDS011;7619;48.562;8.910;2024-02-14T10:24:14;2.50;;;1.00;;
15043;SDS011;7619;48.562;8.910;2024-02-14T10:26:42;1.60;;;1.00;;
15043;SDS011;7619;48.562;8.910;2024-02-14T10:29:11;1.10;;;1.07;;
15043;SDS011;7619;48.562;8.910;2024-02-14T10:31:41;1.23;;;0.90;;
15043;SDS011;7619;48.562;8.910;2024-02-14T10:34:09;1.33;;;1.07;;
15043;SDS011;7619;48.562;8.910;2024-02-14T10:36:37;5.27;;;1.07;;
15043;SDS011;7619;48.562;8.910;2024-02-14T10:39:07;1.40;;;1.10;;
15043;SDS011;7619;48.562;8.910;2024-02-14T10:41:36;3.67;;;1.00;;
15043;SDS011;7619;48.562;8.910;2024-02-14T10:44:05;2.63;;;0.90;;
15043;SDS011;7619;48.562;8.910;2024-02-14T10:46:33;1.47;;;1.00;;
15043;SDS011;7619;48.562;8.910;2024-02-14T10:49:03;1.00;;;0.90;;
15043;SDS011;7619;48.562;8.910;2024-02-14T10:51:32;1.80;;;0.90;;
15043;SDS011;7619;48.562;8.910;2024-02-14T10:54:02;2.30;;;1.10;;
15043;SDS011;7619;48.562;8.910;2024-02-14T10:56:32;1.53;;;1.17;;
15043;SDS011;7619;48.562;8.910;2024-02-14T10:59:01;1.30;;;0.87;;
15043;SDS011;7619;48.562;8.910;2024-02-14T11:01:30;1.47;;;0.90;;
15043;SDS011;7619;48.562;8.910;2024-02-14T11:03:59;3.30;;;1.03;;
15043;SDS011;7619;48.562;8.910;2024-02-14T11:06:28;0.90;;;0.80;;
15043;SDS011;7619;48.562;8.910;2024-02-14T11:08:56;1.23;;;0.77;;
15043;SDS011;7619;48.562;8.910;2024-02-14T11:11:25;1.83;;;0.93;;
15043;SDS011;7619;48.562;8.910;2024-02-14T11:13:54;1.00;;;0.73;;
15043;SDS011;7619;48.562;8.910;2024-02-14T11:16:23;0.93;;;0.93;;
15043;SDS011;7619;48.562;8.910;2024-02-14T11:18:54;6.60;;;2.83;;
15043;SDS011;7619;48.562;8.910;2024-02-14T11:21:28;4.30;;;0.80;;
15043;SDS011;7619;48.562;8.910;2024-02-14T11:23:57;1.10;;;1.00;;
15043;SDS011;7619;48.562;8.910;2024-02-14T11:26:37;1.57;;;1.03;;
15043;SDS011;7619;48.562;8.910;2024-02-14T11:29:01;1.67;;;0.80;;
15043;SDS011;7619;48.562;8.910;2024-02-14T11:31:33;2.03;;;0.80;;
15043;SDS011;7619;48.562;8.910;2024-02-14T11:34:04;1.37;;;0.87;;
15043;SDS011;7619;48.562;8.910;2024-02-14T11:36:32;0.50;;;0.50;;
15043;SDS011;7619;48.562;8.910;2024-02-14T11:39:02;0.97;;;0.50;;
15043;SDS011;7619;48.562;8.910;2024-02-14T11:41:32;0.20;;;0.20;;
15043;SDS011;7619;48.562;8.910;2024-02-14T11:44:01;0.87;;;0.53;;
15043;SDS011;7619;48.562;8.910;2024-02-14T11:46:30;1.50;;;0.80;;
15043;SDS011;7619;48.562;8.910;2024-02-14T11:48:59;0.70;;;0.67;;
15043;SDS011;7619;48.562;8.910;2024-02-14T11:51:28;0.87;;;0.70;;
15043;SDS011;7619;48.562;8.910;2024-02-14T11:53:57;0.40;;;0.40;;
15043;SDS011;7619;48.562;8.910;2024-02-14T11:56:28;1.23;;;1.13;;
15043;SDS011;7619;48.562;8.910;2024-02-14T11:58:59;1.87;;;0.80;;
15043;SDS011;7619;48.562;8.910;2024-02-14T12:01:27;0.70;;;0.40;;
15043;SDS011;7619;48.562;8.910;2024-02-14T12:03:55;0.60;;;0.60;;
15043;SDS011;7619;48.562;8.910;2024-02-14T12:06:24;1.90;;;0.67;;
15043;SDS011;7619;48.562;8.910;2024-02-14T12:08:52;0.63;;;0.50;;
15043;SDS011;7619;48.562;8.910;2024-02-14T12:11:21;0.60;;;0.60;;
15043;SDS011;7619;48.562;8.910;2024-02-14T12:13:51;0.50;;;0.50;;
15043;SDS011;7619;48.562;8.910;2024-02-14T12:16:20;1.20;;;0.70;;
15043;SDS011;7619;48.562;8.910;2024-02-14T12:18:49;0.40;;;0.40;;
15043;SDS011;7619;48.562;8.910;2024-02-14T12:21:17;0.40;;;0.40;;
15043;SDS011;7619;48.562;8.910;2024-02-14T12:23:45;0.43;;;0.43;;
15043;SDS011;7619;48.562;8.910;2024-02-14T12:26:13;0.70;;;0.60;;
15043;SDS011;7619;48.562;8.910;2024-02-14T12:28:45;2.10;;;0.70;;
15043;SDS011;7619;48.562;8.910;2024-02-14T12:31:12;1.27;;;0.70;;
15043;SDS011;7619;48.562;8.910;2024-02-14T12:33:42;0.67;;;0.50;;
15043;SDS011;7619;48.562;8.910;2024-02-14T12:36:11;0.40;;;0.40;;
15043;SDS011;7619;48.562;8.910;2024-02-14T12:38:39;2.63;;;0.40;;
15043;SDS011;7619;48.562;8.910;2024-02-14T12:41:07;0.93;;;0.40;;
15043;SDS011;7619;48.562;8.910;2024-02-14T12:43:35;0.40;;;0.40;;
15043;SDS011;7619;48.562;8.910;2024-02-14T12:46:03;0.60;;;0.47;;
15043;SDS011;7619;48.562;8.910;2024-02-14T12:48:31;0.50;;;0.33;;
15043;SDS011;7619;48.562;8.910;2024-02-14T12:50:59;0.40;;;0.40;;
15043;SDS011;7619;48.562;8.910;2024-02-14T12:53:27;0.53;;;0.50;;
15043;SDS011;7619;48.562;8.910;2024-02-14T12:55:55;0.47;;;0.47;;
15043;SDS011;7619;48.562;8.910;2024-02-14T12:58:23;0.27;;;0.27;;
15043;SDS011;7619;48.562;8.910;2024-02-14T13:00:52;0.47;;;0.40;;
15043;SDS011;7619;48.562;8.910;2024-02-14T13:03:20;0.70;;;0.60;;
15043;SDS011;7619;48.562;8.910;2024-02-14T13:05:48;0.50;;;0.37;;
15043;SDS011;7619;48.562;8.910;2024-02-14T13:10:52;0.40;;;0.40;;
15043;SDS011;7619;48.562;8.910;2024-02-14T13:15:57;0.20;;;0.20;;
15043;SDS011;7619;48.562;8.910;2024-02-14T13:18:25;0.60;;;0.60;;
15043;SDS011;7619;48.562;8.910;2024-02-14T13:20:53;0.53;;;0.50;;
15043;SDS011;7619;48.562;8.910;2024-02-14T13:23:25;0.43;;;0.40;;
15043;SDS011;7619;48.562;8.910;2024-02-14T13:25:53;0.70;;;0.57;;
15043;SDS011;7619;48.562;8.910;2024-02-14T13:28:21;0.47;;;0.30;;
15043;SDS011;7619;48.562;8.910;2024-02-14T13:30:49;0.30;;;0.30;;
15043;SDS011;7619;48.562;8.910;2024-02-14T13:33:17;0.60;;;0.47;;
15043;SDS011;7619;48.562;8.910;2024-02-14T13:35:45;0.33;;;0.33;;
15043;SDS011;7619;48.562;8.910;2024-02-14T13:38:13;1.37;;;0.40;;
15043;SDS011;7619;48.562;8.910;2024-02-14T13:40:42;0.30;;;0.30;;
15043;SDS011;7619;48.562;8.910;2024-02-14T13:45:47;0.93;;;0.43;;
15043;SDS011;7619;48.562;8.910;2024-02-14T13:48:17;0.60;;;0.60;;
15043;SDS011;7619;48.562;8.910;2024-02-14T13:50:45;0.30;;;0.30;;
15043;SDS011;7619;48.562;8.910;2024-02-14T13:53:13;2.43;;;0.40;;
15043;SDS011;7619;48.562;8.910;2024-02-14T13:55:41;0.30;;;0.30;;
15043;SDS011;7619;48.562;8.910;2024-02-14T13:58:09;0.73;;;0.60;;
15043;SDS011;7619;48.562;8.910;2024-02-14T14:00:38;0.30;;;0.30;;
15043;SDS011;7619;48.562;8.910;2024-02-14T14:03:06;0.50;;;0.50;;
15043;SDS011;7619;48.562;8.910;2024-02-14T14:05:34;0.67;;;0.67;;
15043;SDS011;7619;48.562;8.910;2024-02-14T14:08:02;0.87;;;0.73;;
15043;SDS011;7619;48.562;8.910;2024-02-14T14:10:31;1.23;;;0.40;;
15043;SDS011;7619;48.562;8.910;2024-02-14T14:12:59;0.40;;;0.40;;
15043;SDS011;7619;48.562;8.910;2024-02-14T14:15:27;1.70;;;0.57;;
15043;SDS011;7619;48.562;8.910;2024-02-14T14:17:55;2.70;;;0.80;;
15043;SDS011;7619;48.562;8.910;2024-02-14T14:20:24;1.03;;;0.77;;
15043;SDS011;7619;48.562;8.910;2024-02-14T14:22:52;0.90;;;0.67;;
15043;SDS011;7619;48.562;8.910;2024-02-14T14:25:20;0.60;;;0.50;;
15043;SDS011;7619;48.562;8.910;2024-02-14T14:27:48;1.17;;;0.50;;
15043;SDS011;7619;48.562;8.910;2024-02-14T14:30:16;1.07;;;0.40;;
15043;SDS011;7619;48.562;8.910;2024-02-14T14:32:44;0.83;;;0.70;;
15043;SDS011;7619;48.562;8.910;2024-02-14T14:35:13;1.03;;;0.53;;
15043;SDS011;7619;48.562;8.910;2024-02-14T14:37:41;0.73;;;0.40;;
15043;SDS011;7619;48.562;8.910;2024-02-14T14:40:09;0.93;;;0.60;;
15043;SDS011;7619;48.562;8.910;2024-02-14T14:42:37;0.57;;;0.57;;
15043;SDS011;7619;48.562;8.910;2024-02-14T14:45:06;0.47;;;0.47;;
15043;SDS011;7619;48.562;8.910;2024-02-14T14:47:34;0.80;;;0.40;;
15043;SDS011;7619;48.562;8.910;2024-02-14T14:50:02;0.77;;;0.40;;
15043;SDS011;7619;48.562;8.910;2024-02-14T14:52:30;1.73;;;0.50;;
15043;SDS011;7619;48.562;8.910;2024-02-14T14:54:58;0.37;;;0.37;;
15043;SDS011;7619;48.562;8.910;2024-02-14T14:57:26;0.80;;;0.77;;
15043;SDS011;7619;48.562;8.910;2024-02-14T14:59:54;4.43;;;0.50;;
15043;SDS011;7619;48.562;8.910;2024-02-14T15:02:22;2.03;;;0.60;;
15043;SDS011;7619;48.562;8.910;2024-02-14T15:04:50;0.60;;;0.57;;
15043;SDS011;7619;48.562;8.910;2024-02-14T15:07:18;2.37;;;0.50;;
15043;SDS011;7619;48.562;8.910;2024-02-14T15:09:46;0.50;;;0.50;;
15043;SDS011;7619;48.562;8.910;2024-02-14T15:12:15;0.50;;;0.40;;
15043;SDS011;7619;48.562;8.910;2024-02-14T15:14:43;0.93;;;0.63;;
15043;SDS011;7619;48.562;8.910;2024-02-14T15:17:11;0.50;;;0.50;;